createdAt,value
2023-03-19T00:02:18.038Z,103.10
2023-03-19T00:04:48.049Z,103.67
2023-03-19T00:07:17.664Z,101.60
2023-03-19T00:09:48.452Z,94.93
2023-03-19T00:12:16.703Z,97.83
2023-03-19T00:14:44.774Z,95.30
2023-03-19T00:17:14.981Z,104.77
2023-03-19T00:19:43.062Z,97.77
2023-03-19T00:22:12.268Z,105.30
2023-03-19T00:24:40.179Z,104.70
2023-03-19T00:27:08.250Z,97.47
2023-03-19T00:29:36.394Z,98.57
2023-03-19T00:32:04.402Z,98.43
2023-03-19T00:34:32.392Z,93.57
2023-03-19T00:37:00.231Z,102.57
2023-03-19T00:39:29.564Z,102.30
2023-03-19T00:41:57.468Z,105.30
2023-03-19T00:44:25.583Z,97.00
2023-03-19T00:46:53.468Z,118.93
2023-03-19T00:49:21.416Z,112.30
2023-03-19T00:51:49.272Z,118.47
2023-03-19T00:54:18.069Z,109.33
2023-03-19T00:56:47.495Z,105.90
2023-03-19T00:59:15.596Z,108.03
2023-03-19T01:01:43.634Z,99.47
2023-03-19T01:04:13.078Z,107.87
2023-03-19T01:06:40.984Z,109.70
2023-03-19T01:09:08.881Z,131.77
2023-03-19T01:11:37.111Z,110.63
2023-03-19T01:14:06.464Z,104.83
2023-03-19T01:16:34.894Z,128.00
2023-03-19T01:19:04.690Z,102.07
2023-03-19T01:21:32.620Z,114.53
2023-03-19T01:24:00.684Z,110.40
2023-03-19T01:26:28.803Z,104.70
2023-03-19T01:28:56.652Z,89.70
2023-03-19T01:31:26.067Z,99.83
2023-03-19T01:33:54.034Z,91.93
2023-03-19T01:36:22.455Z,94.53
2023-03-19T01:38:50.368Z,96.17
2023-03-19T01:41:18.435Z,89.50
2023-03-19T01:43:46.407Z,89.17
2023-03-19T01:46:24.122Z,87.43
2023-03-19T01:48:57.600Z,94.50
2023-03-19T01:51:29.200Z,83.77
2023-03-19T01:54:00.268Z,96.40
2023-03-19T01:56:32.342Z,89.67
2023-03-19T01:59:04.435Z,75.37
2023-03-19T02:01:36.118Z,79.13
2023-03-19T02:04:07.170Z,82.67
2023-03-19T02:06:36.585Z,70.67
2023-03-19T02:09:04.746Z,67.20
2023-03-19T02:11:33.525Z,71.40
2023-03-19T02:14:01.355Z,73.07
2023-03-19T02:16:29.499Z,67.20
2023-03-19T02:18:57.817Z,65.03
2023-03-19T02:21:27.204Z,65.53
2023-03-19T02:24:02.773Z,63.80
2023-03-19T02:26:32.564Z,68.07
2023-03-19T02:29:00.677Z,56.77
2023-03-19T02:31:29.174Z,62.47
2023-03-19T02:33:59.545Z,61.37
2023-03-19T02:36:30.918Z,57.80
2023-03-19T02:39:02.107Z,54.07
2023-03-19T02:41:33.692Z,53.93
2023-03-19T02:44:04.648Z,53.07
2023-03-19T02:46:32.967Z,57.43
2023-03-19T02:49:00.952Z,48.23
2023-03-19T02:51:30.935Z,51.27
2023-03-19T02:54:00.914Z,52.70
2023-03-19T02:56:29.026Z,43.20
2023-03-19T02:58:58.674Z,38.33
2023-03-19T03:01:26.691Z,44.50
2023-03-19T03:03:54.882Z,37.80
2023-03-19T03:06:22.843Z,44.50
2023-03-19T03:08:51.192Z,37.93
2023-03-19T03:11:19.128Z,36.27
2023-03-19T03:13:47.131Z,41.47
2023-03-19T03:16:17.465Z,38.17
2023-03-19T03:18:45.420Z,36.80
2023-03-19T03:21:13.944Z,32.17
2023-03-19T03:23:42.130Z,29.93
2023-03-19T03:26:10.096Z,30.97
2023-03-19T03:28:37.996Z,32.53
2023-03-19T03:31:05.980Z,31.87
2023-03-19T03:33:35.272Z,30.33
2023-03-19T03:36:03.557Z,29.20
2023-03-19T03:38:32.794Z,31.93
2023-03-19T03:41:00.771Z,32.50
2023-03-19T03:43:28.904Z,27.67
2023-03-19T03:45:56.856Z,28.57
2023-03-19T03:48:26.009Z,28.77
2023-03-19T03:50:55.451Z,28.07
2023-03-19T03:53:23.472Z,27.77
2023-03-19T03:55:51.468Z,29.03
2023-03-19T03:58:19.865Z,31.03
2023-03-19T04:00:48.658Z,30.70
2023-03-19T04:03:17.590Z,30.67
2023-03-19T04:05:45.876Z,27.20
2023-03-19T04:08:16.986Z,29.73
2023-03-19T04:10:46.258Z,31.57
2023-03-19T04:13:14.528Z,31.37
2023-03-19T04:15:43.460Z,27.30
2023-03-19T04:18:11.636Z,30.87
2023-03-19T04:20:40.187Z,36.30
2023-03-19T04:23:08.356Z,31.80
2023-03-19T04:25:41.281Z,34.13
2023-03-19T04:28:09.561Z,36.27
2023-03-19T04:30:39.324Z,31.83
2023-03-19T04:33:07.522Z,35.00
2023-03-19T04:35:35.648Z,33.13
2023-03-19T04:38:04.116Z,30.83
2023-03-19T04:40:32.450Z,31.67
2023-03-19T04:43:01.853Z,30.07
2023-03-19T04:45:29.817Z,29.40
2023-03-19T04:47:58.369Z,28.17
2023-03-19T04:50:26.345Z,24.83
2023-03-19T04:52:57.025Z,29.53
2023-03-19T04:55:24.920Z,27.60
2023-03-19T04:57:52.873Z,27.27
2023-03-19T05:00:22.746Z,29.83
2023-03-19T05:02:50.663Z,26.80
2023-03-19T05:05:19.715Z,26.07
2023-03-19T05:07:47.785Z,29.67
2023-03-19T05:10:15.805Z,26.00
2023-03-19T05:12:43.694Z,26.50
2023-03-19T05:15:12.541Z,24.33
2023-03-19T05:17:41.953Z,26.27
2023-03-19T05:20:11.862Z,20.43
2023-03-19T05:22:40.095Z,22.97
2023-03-19T05:25:08.453Z,20.97
2023-03-19T05:27:36.588Z,23.07
2023-03-19T05:30:05.535Z,23.53
2023-03-19T05:32:34.127Z,23.03
2023-03-19T05:35:04.165Z,22.53
2023-03-19T05:37:32.228Z,19.17
2023-03-19T05:40:00.169Z,22.63
2023-03-19T05:42:28.344Z,22.83
2023-03-19T05:44:56.226Z,19.80
2023-03-19T05:47:24.276Z,21.73
2023-03-19T05:49:52.150Z,18.43
2023-03-19T05:52:21.436Z,17.10
2023-03-19T05:54:49.642Z,15.20
2023-03-19T05:57:18.435Z,14.37
2023-03-19T05:59:46.364Z,14.80
2023-03-19T06:02:14.522Z,15.30
2023-03-19T06:04:43.233Z,16.93
2023-03-19T06:07:11.359Z,12.57
2023-03-19T06:09:41.327Z,13.40
2023-03-19T06:12:09.564Z,13.17
2023-03-19T06:14:37.622Z,12.63
2023-03-19T06:17:05.723Z,13.00
2023-03-19T06:19:33.665Z,11.50
2023-03-19T06:22:01.597Z,10.80
2023-03-19T06:24:30.655Z,13.23
2023-03-19T06:26:59.979Z,10.40
2023-03-19T06:29:28.184Z,12.70
2023-03-19T06:31:58.096Z,11.73
2023-03-19T06:34:26.569Z,12.33
2023-03-19T06:36:54.576Z,10.90
2023-03-19T06:39:22.646Z,11.50
2023-03-19T06:41:51.450Z,11.20
2023-03-19T06:44:20.752Z,10.20
2023-03-19T06:46:48.644Z,10.17
2023-03-19T06:49:16.709Z,10.17
2023-03-19T06:51:44.756Z,9.20
2023-03-19T06:54:12.755Z,11.43
2023-03-19T06:56:40.787Z,10.37
2023-03-19T06:59:12.426Z,11.90
2023-03-19T07:01:42.458Z,9.93
2023-03-19T07:04:11.334Z,10.50
2023-03-19T07:06:39.205Z,10.60
2023-03-19T07:09:07.344Z,11.27
2023-03-19T07:11:36.010Z,8.93
2023-03-19T07:14:04.114Z,9.63
2023-03-19T07:16:32.271Z,9.17
2023-03-19T07:19:03.105Z,9.70
2023-03-19T07:21:31.146Z,9.63
2023-03-19T07:23:59.056Z,9.60
2023-03-19T07:26:27.723Z,9.70
2023-03-19T07:28:55.560Z,9.77
2023-03-19T07:31:23.730Z,11.73
2023-03-19T07:33:51.960Z,9.37
2023-03-19T07:36:21.925Z,10.70
2023-03-19T07:38:52.139Z,8.40
2023-03-19T07:41:20.132Z,8.50
2023-03-19T07:43:48.094Z,9.37
2023-03-19T07:46:16.242Z,7.90
2023-03-19T07:48:44.194Z,9.90
2023-03-19T07:51:12.237Z,7.73
2023-03-19T07:53:41.670Z,7.90
2023-03-19T07:56:10.106Z,8.30
2023-03-19T07:58:37.944Z,9.60
2023-03-19T08:01:07.366Z,9.05
2023-03-19T08:03:35.396Z,8.70
2023-03-19T08:06:03.936Z,10.38
2023-03-19T08:08:35.033Z,8.82
2023-03-19T08:11:04.716Z,10.98
2023-03-19T08:13:32.710Z,10.82
2023-03-19T08:16:01.080Z,12.38
2023-03-19T08:18:29.075Z,12.00
2023-03-19T08:20:57.000Z,12.30
2023-03-19T08:23:25.032Z,13.00
2023-03-19T08:25:53.610Z,11.63
2023-03-19T08:28:22.978Z,12.40
2023-03-19T08:30:51.121Z,11.90
2023-03-19T08:33:19.098Z,13.10
2023-03-19T08:35:47.222Z,10.93
2023-03-19T08:38:15.573Z,10.57
2023-03-19T08:40:43.736Z,9.83
2023-03-19T08:43:11.631Z,12.57
2023-03-19T08:45:43.296Z,11.48
2023-03-19T08:48:11.526Z,11.02
2023-03-19T08:50:39.372Z,10.13
2023-03-19T08:53:08.396Z,10.20
2023-03-19T08:55:40.557Z,11.18
2023-03-19T08:58:08.562Z,10.50
2023-03-19T09:00:36.711Z,10.85
2023-03-19T09:03:06.992Z,10.85
2023-03-19T09:05:35.144Z,10.38
2023-03-19T09:08:03.487Z,10.73
2023-03-19T09:10:31.788Z,12.43
2023-03-19T09:13:00.029Z,11.80
2023-03-19T09:15:29.093Z,11.45
2023-03-19T09:17:57.608Z,11.75
2023-03-19T09:20:26.923Z,10.70
2023-03-19T09:22:56.093Z,10.23
2023-03-19T09:25:24.282Z,9.73
2023-03-19T09:27:52.152Z,9.52
2023-03-19T09:30:20.042Z,9.77
2023-03-19T09:32:48.027Z,9.57
2023-03-19T09:35:16.235Z,11.18
2023-03-19T09:37:45.840Z,10.63
2023-03-19T09:40:22.313Z,11.55
2023-03-19T09:42:59.966Z,10.55
2023-03-19T09:45:29.983Z,12.00
2023-03-19T09:48:04.348Z,12.15
2023-03-19T09:50:34.844Z,13.85
2023-03-19T09:53:13.346Z,11.95
2023-03-19T09:55:45.758Z,11.07
2023-03-19T09:58:19.652Z,12.02
2023-03-19T10:00:51.839Z,11.07
2023-03-19T10:03:39.797Z,12.10
2023-03-19T10:06:23.615Z,11.10
2023-03-19T10:09:09.753Z,11.55
2023-03-19T10:11:52.856Z,10.75
2023-03-19T10:14:43.369Z,10.50
2023-03-19T10:17:16.988Z,10.57
2023-03-19T10:19:48.643Z,11.38
2023-03-19T10:22:20.805Z,9.35
2023-03-19T10:24:55.217Z,11.68
2023-03-19T10:27:27.276Z,11.10
2023-03-19T10:29:55.595Z,10.18
2023-03-19T10:32:35.858Z,11.40
2023-03-19T10:35:09.277Z,11.90
2023-03-19T10:37:37.977Z,11.25
2023-03-19T10:40:18.711Z,12.15
2023-03-19T10:43:02.723Z,12.18
2023-03-19T10:45:33.169Z,14.98
2023-03-19T10:48:03.274Z,11.15
2023-03-19T10:50:33.774Z,15.98
2023-03-19T10:53:07.792Z,15.40
2023-03-19T10:55:37.207Z,13.93
2023-03-19T10:58:07.689Z,12.25
2023-03-19T11:00:36.518Z,11.40
2023-03-19T11:03:05.562Z,11.68
2023-03-19T11:05:35.346Z,12.45
2023-03-19T11:08:05.511Z,11.50
2023-03-19T11:10:37.720Z,12.65
2023-03-19T11:13:08.201Z,10.70
2023-03-19T11:15:39.077Z,9.90
2023-03-19T11:18:10.494Z,10.15
2023-03-19T11:20:40.008Z,11.18
2023-03-19T11:23:13.556Z,8.65
2023-03-19T11:25:48.279Z,7.80
2023-03-19T11:28:21.232Z,8.40
2023-03-19T11:31:09.029Z,7.72
2023-03-19T11:33:47.240Z,8.93
2023-03-19T11:36:22.707Z,8.25
2023-03-19T11:39:03.536Z,7.78
2023-03-19T11:41:44.038Z,7.30
2023-03-19T11:44:20.320Z,9.00
2023-03-19T11:46:58.716Z,8.15
2023-03-19T11:50:01.146Z,6.32
2023-03-19T11:52:36.757Z,6.45
2023-03-19T11:55:16.316Z,7.30
2023-03-19T11:58:09.972Z,6.30
2023-03-19T12:00:47.138Z,5.63
2023-03-19T12:03:43.496Z,6.97
2023-03-19T12:06:21.026Z,6.15
2023-03-19T12:08:56.754Z,6.25
2023-03-19T12:11:28.791Z,7.00
2023-03-19T12:14:17.795Z,6.80
2023-03-19T12:17:04.336Z,8.60
2023-03-19T12:19:50.797Z,6.65
2023-03-19T12:22:33.625Z,6.30
2023-03-19T12:25:17.101Z,5.72
2023-03-19T12:27:54.794Z,6.30
2023-03-19T12:30:35.941Z,7.30
2023-03-19T12:33:13.366Z,7.45
2023-03-19T12:35:43.451Z,6.97
2023-03-19T12:38:14.945Z,6.80
2023-03-19T12:40:48.740Z,7.85
2023-03-19T12:43:21.091Z,6.60
2023-03-19T12:45:58.381Z,9.70
2023-03-19T12:48:29.835Z,8.02
2023-03-19T12:51:06.845Z,7.35
2023-03-19T12:53:41.646Z,6.70
2023-03-19T12:56:16.318Z,9.38
2023-03-19T12:58:56.308Z,7.25
2023-03-19T13:01:31.600Z,6.78
2023-03-19T13:04:04.952Z,7.22
2023-03-19T13:06:38.668Z,7.38
2023-03-19T13:09:13.064Z,7.68
2023-03-19T13:11:48.636Z,8.70
2023-03-19T13:14:24.433Z,7.05
2023-03-19T13:16:59.003Z,8.30
2023-03-19T13:19:35.611Z,8.00
2023-03-19T13:22:08.898Z,9.35
2023-03-19T13:24:40.822Z,8.82
2023-03-19T13:27:15.876Z,7.90
2023-03-19T13:29:57.501Z,7.85
2023-03-19T13:32:42.235Z,8.63
2023-03-19T13:35:20.579Z,7.13
2023-03-19T13:37:53.468Z,4.90
2023-03-19T13:40:45.836Z,5.78
2023-03-19T13:43:39.868Z,5.22
2023-03-19T13:46:32.591Z,5.05
2023-03-19T13:49:11.354Z,4.63
2023-03-19T13:51:39.624Z,5.20
2023-03-19T13:54:20.218Z,5.63
2023-03-19T13:57:07.915Z,5.32
2023-03-19T13:59:37.901Z,6.22
2023-03-19T14:02:59.088Z,5.72
2023-03-19T14:05:35.893Z,5.57
2023-03-19T14:08:17.273Z,7.47
2023-03-19T14:10:51.026Z,17.30
2023-03-19T14:13:27.839Z,6.22
2023-03-19T14:16:06.487Z,6.32
2023-03-19T14:18:37.952Z,5.97
2023-03-19T14:21:13.222Z,5.57
2023-03-19T14:23:46.357Z,6.20
2023-03-19T14:26:19.286Z,5.30
2023-03-19T14:28:58.882Z,5.43
2023-03-19T14:31:34.870Z,5.10
2023-03-19T14:34:08.799Z,5.75
2023-03-19T14:36:44.172Z,4.82
2023-03-19T14:39:21.651Z,4.80
2023-03-19T14:41:57.385Z,4.35
2023-03-19T14:44:46.138Z,4.80
2023-03-19T14:47:26.501Z,4.90
2023-03-19T14:50:12.204Z,4.45
2023-03-19T14:52:45.228Z,5.60
2023-03-19T14:55:16.459Z,5.22
2023-03-19T14:57:44.887Z,5.38
2023-03-19T15:00:17.643Z,6.13
2023-03-19T15:02:48.318Z,5.60
2023-03-19T15:05:22.319Z,6.07
2023-03-19T15:07:56.389Z,4.72
2023-03-19T15:10:28.809Z,4.65
2023-03-19T15:13:13.956Z,4.13
2023-03-19T15:15:58.023Z,4.07
2023-03-19T15:18:27.220Z,4.40
2023-03-19T15:20:57.316Z,4.88
2023-03-19T15:23:29.587Z,5.10
2023-03-19T15:26:00.953Z,4.20
2023-03-19T15:28:30.847Z,5.45
2023-03-19T15:31:12.514Z,5.10
2023-03-19T15:33:47.207Z,5.07
2023-03-19T15:36:20.109Z,5.22
2023-03-19T15:38:54.086Z,5.57
2023-03-19T15:41:23.083Z,5.82
2023-03-19T15:43:52.192Z,5.68
2023-03-19T15:46:26.200Z,5.70
2023-03-19T15:48:59.630Z,6.22
2023-03-19T15:51:28.836Z,6.28
2023-03-19T15:53:58.442Z,7.97
2023-03-19T15:56:26.742Z,6.40
2023-03-19T15:58:58.481Z,6.40
2023-03-19T16:01:28.108Z,6.00
2023-03-19T16:04:00.893Z,7.85
2023-03-19T16:06:31.890Z,6.82
2023-03-19T16:09:20.914Z,6.75
2023-03-19T16:11:49.148Z,9.30
2023-03-19T16:14:25.136Z,10.70
2023-03-19T16:17:00.942Z,9.80
2023-03-19T16:19:35.959Z,9.25
2023-03-19T16:22:12.314Z,9.98
2023-03-19T16:24:43.662Z,9.25
2023-03-19T16:27:14.922Z,10.32
2023-03-19T16:29:44.791Z,9.93
2023-03-19T16:32:21.362Z,11.20
2023-03-19T16:34:51.917Z,10.57
2023-03-19T16:37:42.221Z,10.35
2023-03-19T16:40:42.268Z,12.80
2023-03-19T16:43:17.341Z,10.85
2023-03-19T16:45:46.328Z,11.52
2023-03-19T16:48:14.183Z,9.27
2023-03-19T16:50:44.204Z,10.80
2023-03-19T16:53:21.733Z,8.52
2023-03-19T16:55:52.046Z,8.15
2023-03-19T16:58:27.085Z,8.32
2023-03-19T17:00:55.586Z,7.10
2023-03-19T17:03:23.774Z,7.03
2023-03-19T17:05:51.693Z,6.38
2023-03-19T17:08:23.458Z,6.13
2023-03-19T17:10:54.655Z,6.07
2023-03-19T17:13:28.166Z,6.18
2023-03-19T17:15:58.238Z,7.93
2023-03-19T17:18:30.604Z,6.32
2023-03-19T17:21:01.743Z,6.43
2023-03-19T17:23:30.579Z,6.53
2023-03-19T17:26:00.520Z,5.80
2023-03-19T17:28:28.478Z,5.40
2023-03-19T17:30:56.532Z,5.65
2023-03-19T17:33:26.980Z,6.28
2023-03-19T17:35:56.966Z,5.72
2023-03-19T17:38:32.804Z,5.57
2023-03-19T17:41:02.299Z,5.63
2023-03-19T17:43:31.820Z,5.38
2023-03-19T17:46:00.118Z,5.38
2023-03-19T17:48:28.412Z,7.18
2023-03-19T17:51:01.762Z,7.07
2023-03-19T17:53:30.300Z,8.10
2023-03-19T17:55:58.450Z,7.50
2023-03-19T17:58:28.100Z,7.35
2023-03-19T18:00:56.309Z,7.13
2023-03-19T18:03:26.298Z,6.85
2023-03-19T18:05:54.416Z,7.50
2023-03-19T18:08:23.817Z,6.53
2023-03-19T18:10:51.932Z,7.10
2023-03-19T18:13:20.129Z,6.60
2023-03-19T18:15:49.590Z,7.40
2023-03-19T18:18:21.561Z,7.63
2023-03-19T18:20:50.039Z,8.43
2023-03-19T18:23:18.600Z,7.25
2023-03-19T18:25:47.380Z,7.75
2023-03-19T18:28:15.510Z,6.67
2023-03-19T18:30:45.206Z,6.80
2023-03-19T18:33:18.595Z,7.32
2023-03-19T18:35:47.733Z,7.93
2023-03-19T18:38:18.684Z,7.07
2023-03-19T18:40:47.113Z,8.05
2023-03-19T18:43:16.323Z,6.70
2023-03-19T18:45:46.774Z,6.57
2023-03-19T18:48:23.210Z,5.97
2023-03-19T18:50:51.815Z,6.57
2023-03-19T18:53:20.060Z,7.50
2023-03-19T18:55:48.200Z,7.60
2023-03-19T18:58:21.868Z,7.23
2023-03-19T19:00:51.151Z,8.20
2023-03-19T19:03:28.550Z,6.30
2023-03-19T19:05:56.980Z,7.10
2023-03-19T19:08:25.421Z,5.67
2023-03-19T19:10:56.637Z,6.80
2023-03-19T19:13:29.162Z,7.00
2023-03-19T19:15:58.837Z,10.50
2023-03-19T19:18:31.728Z,7.27
2023-03-19T19:21:00.959Z,10.57
2023-03-19T19:23:30.331Z,6.07
2023-03-19T19:25:58.563Z,7.60
2023-03-19T19:28:30.653Z,6.30
2023-03-19T19:31:00.985Z,7.83
2023-03-19T19:33:34.726Z,5.60
2023-03-19T19:36:03.326Z,7.20
2023-03-19T19:38:31.462Z,6.50
2023-03-19T19:41:00.629Z,5.40
2023-03-19T19:43:31.623Z,5.83
2023-03-19T19:46:00.528Z,7.60
2023-03-19T19:48:30.648Z,8.73
2023-03-19T19:50:59.091Z,5.53
2023-03-19T19:53:29.600Z,6.30
2023-03-19T19:55:57.906Z,6.80
2023-03-19T19:58:33.668Z,5.50
2023-03-19T20:01:04.184Z,6.70
2023-03-19T20:03:35.146Z,8.57
2023-03-19T20:06:03.630Z,4.77
2023-03-19T20:08:31.572Z,6.27
2023-03-19T20:11:00.997Z,4.60
2023-03-19T20:13:32.671Z,6.03
2023-03-19T20:16:03.183Z,3.80
2023-03-19T20:18:35.823Z,6.03
2023-03-19T20:21:04.369Z,4.50
2023-03-19T20:23:32.601Z,4.77
2023-03-19T20:26:01.915Z,8.87
2023-03-19T20:28:35.692Z,5.03
2023-03-19T20:31:05.836Z,7.80
2023-03-19T20:33:37.531Z,5.77
2023-03-19T20:36:06.411Z,5.33
2023-03-19T20:38:36.734Z,5.67
2023-03-19T20:41:04.752Z,8.27
2023-03-19T20:43:35.370Z,5.13
2023-03-19T20:46:06.124Z,5.43
2023-03-19T20:48:35.767Z,5.20
2023-03-19T20:51:04.114Z,12.40
2023-03-19T20:53:32.260Z,5.77
2023-03-19T20:56:03.051Z,6.47
2023-03-19T20:58:33.734Z,6.97
2023-03-19T21:01:02.867Z,6.87
2023-03-19T21:03:32.569Z,5.37
2023-03-19T21:06:04.831Z,5.33
2023-03-19T21:08:39.579Z,6.67
2023-03-19T21:11:11.623Z,5.03
2023-03-19T21:13:39.598Z,4.60
2023-03-19T21:16:10.328Z,5.63
2023-03-19T21:18:38.300Z,8.53
2023-03-19T21:21:07.822Z,7.53
2023-03-19T21:23:38.226Z,3.20
2023-03-19T21:26:16.240Z,7.50
2023-03-19T21:28:46.451Z,6.10
2023-03-19T21:31:17.990Z,4.60
2023-03-19T21:33:47.707Z,8.83
2023-03-19T21:36:17.516Z,4.57
2023-03-19T21:38:45.883Z,5.53
2023-03-19T21:41:22.074Z,3.47
2023-03-19T21:43:54.059Z,3.87
2023-03-19T21:46:26.252Z,7.27
2023-03-19T21:48:55.085Z,5.73
2023-03-19T21:51:25.512Z,5.03
2023-03-19T21:53:53.642Z,7.73
2023-03-19T21:56:24.850Z,7.97
2023-03-19T21:58:54.090Z,2.57
2023-03-19T22:01:24.537Z,2.10
2023-03-19T22:03:54.014Z,3.83
2023-03-19T22:06:23.028Z,2.70
2023-03-19T22:08:54.157Z,3.17
2023-03-19T22:11:26.819Z,4.80
2023-03-19T22:13:55.569Z,2.47
2023-03-19T22:16:25.767Z,3.63
2023-03-19T22:18:54.320Z,2.03
2023-03-19T22:21:23.765Z,2.97
2023-03-19T22:23:53.699Z,2.47
2023-03-19T22:26:33.997Z,2.30
2023-03-19T22:29:04.313Z,2.03
2023-03-19T22:31:33.033Z,3.13
2023-03-19T22:34:01.051Z,3.43
2023-03-19T22:36:29.192Z,1.60
2023-03-19T22:38:58.929Z,2.47
2023-03-19T22:41:34.134Z,1.60
2023-03-19T22:44:04.568Z,2.10
2023-03-19T22:46:32.540Z,1.93
2023-03-19T22:49:01.672Z,3.13
2023-03-19T22:51:29.848Z,1.70
2023-03-19T22:53:59.048Z,1.87
2023-03-19T22:56:27.018Z,2.90
2023-03-19T22:58:55.023Z,3.30
2023-03-19T23:01:36.389Z,4.20
2023-03-19T23:04:18.275Z,2.33
2023-03-19T23:06:46.485Z,2.43
2023-03-19T23:09:19.482Z,3.47
2023-03-19T23:11:48.317Z,3.23
2023-03-19T23:14:28.430Z,2.80
2023-03-19T23:17:00.975Z,2.97
2023-03-19T23:19:31.113Z,2.97
2023-03-19T23:22:01.548Z,2.80
2023-03-19T23:24:31.132Z,3.57
2023-03-19T23:27:00.944Z,4.57
2023-03-19T23:29:32.588Z,3.00
2023-03-19T23:32:00.548Z,3.43
2023-03-19T23:34:29.553Z,3.70
2023-03-19T23:36:58.158Z,3.33
2023-03-19T23:39:26.266Z,3.53
2023-03-19T23:41:57.956Z,3.47
2023-03-19T23:44:29.339Z,4.80
2023-03-19T23:47:00.926Z,3.73
2023-03-19T23:49:31.119Z,4.43
2023-03-19T23:52:00.103Z,7.63
2023-03-19T23:54:30.672Z,6.30
2023-03-19T23:57:02.650Z,8.07
2023-03-19T23:59:34.581Z,10.67
